createdAt,value
2023-04-29T00:00:09.018Z,13.07
2023-04-29T00:02:35.613Z,14.33
2023-04-29T00:05:04.381Z,13.10
2023-04-29T00:07:31.045Z,15.03
2023-04-29T00:09:57.503Z,16.07
2023-04-29T00:12:23.956Z,20.13
2023-04-29T00:14:50.097Z,17.50
2023-04-29T00:17:16.836Z,24.70
2023-04-29T00:19:43.496Z,23.00
2023-04-29T00:22:10.454Z,24.17
2023-04-29T00:24:36.774Z,28.63
2023-04-29T00:27:03.146Z,37.27
2023-04-29T00:29:29.401Z,40.30
2023-04-29T00:31:55.644Z,42.30
2023-04-29T00:34:21.899Z,44.53
2023-04-29T00:36:48.387Z,51.90
2023-04-29T00:39:15.508Z,51.27
2023-04-29T00:41:42.120Z,53.10
2023-04-29T00:44:09.249Z,56.43
2023-04-29T00:46:35.870Z,55.40
2023-04-29T00:49:02.164Z,60.77
2023-04-29T00:51:28.483Z,62.63
2023-04-29T00:53:54.871Z,65.73
2023-04-29T00:56:21.809Z,68.60
2023-04-29T00:58:49.244Z,73.87
2023-04-29T01:01:15.908Z,76.10
2023-04-29T01:03:42.564Z,74.03
2023-04-29T01:06:13.685Z,80.87
2023-04-29T01:08:52.213Z,81.00
2023-04-29T01:11:23.175Z,74.67
2023-04-29T01:13:50.646Z,81.90
2023-04-29T01:16:22.749Z,81.10
2023-04-29T01:18:52.112Z,87.30
2023-04-29T01:21:18.905Z,81.77
2023-04-29T01:27:55.392Z,85.23
2023-04-29T01:30:31.597Z,82.03
2023-04-29T01:33:03.878Z,82.50
2023-04-29T01:35:41.000Z,76.33
2023-04-29T01:38:15.283Z,78.47
2023-04-29T01:40:44.605Z,86.80
2023-04-29T01:43:12.205Z,80.60
2023-04-29T01:45:40.512Z,84.60
2023-04-29T01:48:07.085Z,80.30
2023-04-29T01:50:33.598Z,84.97
2023-04-29T01:52:59.804Z,87.50
2023-04-29T01:55:25.948Z,91.43
2023-04-29T01:57:52.150Z,91.93
2023-04-29T02:00:19.108Z,77.20
2023-04-29T02:02:45.730Z,86.83
2023-04-29T02:05:11.983Z,86.83
2023-04-29T02:07:38.267Z,86.57
2023-04-29T02:10:05.473Z,92.67
2023-04-29T02:12:31.866Z,97.53
2023-04-29T02:14:58.336Z,100.23
2023-04-29T02:17:25.580Z,109.60
2023-04-29T02:19:54.401Z,97.87
2023-04-29T02:22:21.211Z,107.10
2023-04-29T02:24:47.577Z,103.47
2023-04-29T02:27:13.733Z,101.10
2023-04-29T02:29:39.914Z,101.97
2023-04-29T02:32:06.330Z,98.27
2023-04-29T02:34:33.262Z,99.07
2023-04-29T02:36:59.408Z,102.00
2023-04-29T02:39:25.550Z,97.10
2023-04-29T02:41:54.100Z,85.57
2023-04-29T02:44:20.910Z,87.17
2023-04-29T02:46:48.693Z,80.43
2023-04-29T02:49:14.881Z,76.77
2023-04-29T02:51:41.676Z,80.87
2023-04-29T02:54:07.854Z,80.00
2023-04-29T02:56:34.052Z,78.27
2023-04-29T02:59:00.153Z,75.73
2023-04-29T03:01:26.539Z,72.97
2023-04-29T03:03:54.158Z,77.20
2023-04-29T03:06:21.395Z,73.10
2023-04-29T03:08:48.262Z,72.40
2023-04-29T03:11:14.502Z,76.83
2023-04-29T03:13:40.694Z,73.53
2023-04-29T03:16:07.831Z,72.30
2023-04-29T03:18:34.114Z,71.43
2023-04-29T03:21:00.234Z,69.80
2023-04-29T03:23:27.226Z,78.43
2023-04-29T03:25:55.041Z,73.50
2023-04-29T03:28:21.352Z,75.47
2023-04-29T03:30:47.833Z,77.63
2023-04-29T03:33:14.141Z,76.67
2023-04-29T03:35:40.377Z,77.23
2023-04-29T03:38:06.524Z,87.90
2023-04-29T03:40:32.730Z,77.67
2023-04-29T03:43:00.225Z,76.97
2023-04-29T03:45:26.458Z,75.77
2023-04-29T03:47:53.795Z,86.40
2023-04-29T03:50:20.092Z,76.40
2023-04-29T03:52:46.556Z,76.90
2023-04-29T03:55:12.692Z,70.10
2023-04-29T03:57:41.612Z,71.47
2023-04-29T04:00:10.366Z,69.97
2023-04-29T04:02:36.895Z,72.63
2023-04-29T04:05:03.370Z,73.90
2023-04-29T04:07:29.749Z,71.93
2023-04-29T04:09:55.935Z,67.87
2023-04-29T04:12:22.097Z,73.13
2023-04-29T04:14:48.363Z,65.40
2023-04-29T04:17:15.241Z,60.50
2023-04-29T04:19:41.379Z,65.30
2023-04-29T04:22:07.547Z,61.73
2023-04-29T04:24:33.737Z,58.97
2023-04-29T04:27:00.210Z,60.57
2023-04-29T04:29:26.411Z,59.03
2023-04-29T04:31:52.593Z,59.70
2023-04-29T04:34:19.557Z,61.87
2023-04-29T04:36:46.210Z,63.93
2023-04-29T04:39:12.309Z,59.37
2023-04-29T04:41:38.593Z,61.17
2023-04-29T04:44:04.943Z,50.90
2023-04-29T04:46:31.074Z,52.67
2023-04-29T04:48:57.258Z,49.77
2023-04-29T04:51:24.126Z,44.37
2023-04-29T04:53:50.900Z,47.37
2023-04-29T04:56:17.172Z,46.63
2023-04-29T04:58:43.718Z,45.67
2023-04-29T05:01:09.951Z,53.33
2023-04-29T05:03:36.419Z,50.13
2023-04-29T05:06:02.887Z,48.57
2023-04-29T05:08:29.739Z,50.57
2023-04-29T05:10:56.902Z,46.50
2023-04-29T05:13:24.660Z,49.47
2023-04-29T05:15:50.926Z,46.30
2023-04-29T05:18:17.071Z,47.00
2023-04-29T05:20:43.321Z,48.27
2023-04-29T05:23:09.806Z,43.90
2023-04-29T05:25:36.665Z,39.57
2023-04-29T05:28:03.003Z,41.53
2023-04-29T05:30:29.445Z,42.93
2023-04-29T05:32:56.047Z,40.23
2023-04-29T05:35:22.862Z,35.97
2023-04-29T05:37:49.028Z,40.50
2023-04-29T05:40:15.368Z,38.87
2023-04-29T05:42:42.553Z,37.87
2023-04-29T05:45:09.823Z,34.80
2023-04-29T05:47:36.104Z,39.23
2023-04-29T05:50:02.460Z,39.63
2023-04-29T05:52:28.619Z,41.63
2023-04-29T05:54:54.883Z,35.87
2023-04-29T05:57:21.391Z,38.63
2023-04-29T05:59:48.153Z,41.13
2023-04-29T06:02:14.440Z,34.80
2023-04-29T06:04:41.078Z,37.70
2023-04-29T06:07:08.534Z,34.97
2023-04-29T06:09:34.878Z,36.97
2023-04-29T06:12:02.336Z,35.17
2023-04-29T06:14:28.528Z,33.20
2023-04-29T06:16:55.322Z,33.03
2023-04-29T06:19:21.520Z,38.93
2023-04-29T06:21:47.747Z,37.03
2023-04-29T06:24:13.930Z,35.83
2023-04-29T06:26:40.232Z,33.57
2023-04-29T06:29:06.405Z,33.27
2023-04-29T06:31:32.684Z,36.40
2023-04-29T06:33:59.512Z,37.87
2023-04-29T06:36:26.368Z,37.20
2023-04-29T06:38:52.779Z,38.37
2023-04-29T06:41:18.959Z,39.17
2023-04-29T06:43:47.269Z,38.27
2023-04-29T06:46:14.900Z,35.70
2023-04-29T06:48:41.217Z,36.83
2023-04-29T06:51:08.186Z,38.67
2023-04-29T06:53:34.374Z,37.00
2023-04-29T06:56:00.606Z,38.50
2023-04-29T06:58:26.913Z,33.50
2023-04-29T07:00:53.152Z,31.53
2023-04-29T07:03:19.557Z,33.10
2023-04-29T07:05:45.973Z,36.73
2023-04-29T07:08:13.613Z,32.23
2023-04-29T07:10:40.792Z,33.47
2023-04-29T07:13:07.243Z,29.17
2023-04-29T07:15:34.350Z,32.07
2023-04-29T07:18:00.546Z,32.23
2023-04-29T07:20:26.778Z,27.83
2023-04-29T07:22:52.965Z,28.33
2023-04-29T07:25:20.057Z,28.13
2023-04-29T07:27:47.066Z,31.10
2023-04-29T07:30:13.376Z,26.57
2023-04-29T07:32:39.553Z,30.87
2023-04-29T07:35:06.159Z,27.37
2023-04-29T07:37:32.418Z,24.73
2023-04-29T07:39:58.566Z,30.73
2023-04-29T07:42:25.881Z,26.37
2023-04-29T07:44:52.201Z,23.50
2023-04-29T07:47:18.487Z,27.13
2023-04-29T07:49:44.712Z,25.57
2023-04-29T07:52:10.899Z,25.03
2023-04-29T07:54:37.070Z,27.57
2023-04-29T07:57:03.912Z,26.73
2023-04-29T07:59:31.076Z,29.40
2023-04-29T08:01:57.288Z,25.60
2023-04-29T08:04:24.093Z,27.67
2023-04-29T08:06:50.340Z,29.73
2023-04-29T08:09:16.670Z,32.47
2023-04-29T08:11:44.113Z,34.47
2023-04-29T08:14:10.541Z,31.37
2023-04-29T08:16:37.681Z,33.83
2023-04-29T08:19:04.019Z,31.77
2023-04-29T08:21:31.362Z,30.00
2023-04-29T08:23:57.593Z,31.27
2023-04-29T08:26:24.177Z,30.93
2023-04-29T08:28:50.473Z,31.07
2023-04-29T08:31:17.595Z,31.70
2023-04-29T08:33:44.437Z,29.67
2023-04-29T08:36:10.563Z,31.10
2023-04-29T08:38:36.944Z,31.37
2023-04-29T08:41:03.145Z,30.23
2023-04-29T08:43:29.580Z,31.67
2023-04-29T08:45:57.948Z,31.97
2023-04-29T08:48:25.796Z,42.80
2023-04-29T08:50:52.619Z,41.80
2023-04-29T08:53:18.950Z,37.30
2023-04-29T08:55:46.548Z,40.43
2023-04-29T08:58:14.097Z,39.17
2023-04-29T09:00:41.844Z,38.27
2023-04-29T09:03:13.467Z,35.93
2023-04-29T09:05:41.133Z,48.60
2023-04-29T09:08:08.468Z,51.23
2023-04-29T09:10:35.869Z,51.73
2023-04-29T09:13:02.170Z,56.17
2023-04-29T09:15:28.478Z,53.57
2023-04-29T09:17:54.702Z,52.83
2023-04-29T09:20:26.717Z,61.93
2023-04-29T09:22:54.259Z,62.90
2023-04-29T09:25:22.363Z,64.47
2023-04-29T09:27:48.866Z,63.40
2023-04-29T09:30:16.011Z,54.17
2023-04-29T09:32:42.593Z,59.07
2023-04-29T09:35:25.326Z,58.17
2023-04-29T09:37:53.497Z,55.87
2023-04-29T09:40:29.942Z,58.97
2023-04-29T09:42:56.768Z,63.97
2023-04-29T09:45:34.307Z,70.20
2023-04-29T09:48:02.498Z,68.47
2023-04-29T09:50:28.817Z,73.33
2023-04-29T09:52:55.120Z,72.57
2023-04-29T09:55:21.348Z,76.07
2023-04-29T09:57:48.298Z,78.53
2023-04-29T10:00:15.149Z,84.23
2023-04-29T10:02:42.330Z,76.67
2023-04-29T10:05:09.955Z,73.73
2023-04-29T10:07:39.258Z,81.50
2023-04-29T10:10:07.376Z,97.07
2023-04-29T10:12:35.302Z,87.40
2023-04-29T10:15:03.755Z,87.90
2023-04-29T10:17:36.738Z,82.17
2023-04-29T10:20:05.226Z,83.43
2023-04-29T10:22:35.110Z,73.83
2023-04-29T10:25:01.544Z,82.23
2023-04-29T10:27:28.738Z,95.23
2023-04-29T10:29:56.507Z,89.80
2023-04-29T10:32:23.544Z,81.83
2023-04-29T10:34:52.156Z,76.47
2023-04-29T10:37:19.215Z,78.77
2023-04-29T10:39:52.718Z,68.10
2023-04-29T10:42:23.756Z,81.63
2023-04-29T10:45:17.627Z,69.37
2023-04-29T10:48:08.614Z,57.30
2023-04-29T10:50:35.634Z,54.80
2023-04-29T10:53:02.655Z,53.30
2023-04-29T10:55:28.861Z,49.97
2023-04-29T10:57:56.257Z,44.63
2023-04-29T11:00:23.076Z,49.40
2023-04-29T11:02:49.992Z,52.80
2023-04-29T11:05:17.721Z,48.07
2023-04-29T11:07:45.341Z,46.90
2023-04-29T11:10:12.584Z,45.10
2023-04-29T11:12:38.831Z,43.80
2023-04-29T11:15:10.363Z,39.13
2023-04-29T11:17:37.258Z,45.00
2023-04-29T11:20:09.930Z,45.43
2023-04-29T11:22:36.108Z,45.43
2023-04-29T11:25:03.713Z,47.23
2023-04-29T11:27:31.413Z,44.77
2023-04-29T11:29:59.059Z,47.77
2023-04-29T11:32:26.552Z,47.97
2023-04-29T11:34:53.369Z,49.17
2023-04-29T11:37:24.556Z,41.60
2023-04-29T11:39:51.421Z,39.33
2023-04-29T11:42:21.489Z,40.53
2023-04-29T11:44:51.680Z,42.87
2023-04-29T11:47:18.080Z,40.80
2023-04-29T11:49:44.261Z,37.57
2023-04-29T11:52:10.943Z,46.17
2023-04-29T11:54:37.846Z,40.90
2023-04-29T11:57:05.257Z,41.17
2023-04-29T11:59:32.201Z,39.97
2023-04-29T12:01:59.026Z,48.27
2023-04-29T12:04:25.472Z,46.57
2023-04-29T12:06:52.266Z,42.90
2023-04-29T12:09:18.954Z,41.57
2023-04-29T12:11:46.536Z,39.73
2023-04-29T12:14:13.007Z,44.53
2023-04-29T12:16:39.554Z,39.73
2023-04-29T12:19:06.058Z,36.73
2023-04-29T12:21:33.566Z,40.83
2023-04-29T12:24:01.647Z,34.30
2023-04-29T12:26:28.075Z,34.97
2023-04-29T12:28:57.068Z,37.47
2023-04-29T12:31:23.716Z,38.67
2023-04-29T12:33:54.472Z,34.87
2023-04-29T12:36:20.758Z,37.30
2023-04-29T12:38:47.563Z,37.27
2023-04-29T12:41:16.385Z,39.63
2023-04-29T12:43:43.293Z,32.43
2023-04-29T12:46:11.997Z,34.80
2023-04-29T12:48:40.733Z,34.63
2023-04-29T12:51:09.210Z,35.40
2023-04-29T12:53:35.600Z,32.93
2023-04-29T12:56:01.854Z,36.30
2023-04-29T12:58:28.912Z,30.27
2023-04-29T13:00:55.352Z,26.43
2023-04-29T13:03:23.060Z,27.60
2023-04-29T13:05:51.911Z,28.50
2023-04-29T13:08:18.382Z,28.57
2023-04-29T13:10:44.808Z,27.60
2023-04-29T13:13:11.133Z,27.73
2023-04-29T13:15:38.393Z,26.63
2023-04-29T13:18:04.785Z,28.67
2023-04-29T13:20:32.344Z,25.00
2023-04-29T13:22:58.734Z,24.57
2023-04-29T13:25:24.954Z,27.17
2023-04-29T13:27:51.263Z,28.63
2023-04-29T13:30:17.594Z,21.50
2023-04-29T13:32:49.450Z,25.97
2023-04-29T13:35:19.922Z,28.60
2023-04-29T13:37:47.409Z,31.60
2023-04-29T13:40:20.162Z,28.43
2023-04-29T13:42:50.146Z,30.07
2023-04-29T13:45:19.436Z,26.90
2023-04-29T13:48:05.910Z,25.87
2023-04-29T13:53:33.631Z,21.97
2023-04-29T14:01:17.222Z,23.97
2023-04-29T14:03:35.643Z,24.43
2023-04-29T14:06:02.971Z,19.70
2023-04-29T14:08:29.929Z,22.80
2023-04-29T14:10:56.146Z,21.87
2023-04-29T14:13:22.788Z,22.00
2023-04-29T14:15:49.094Z,30.57
2023-04-29T14:18:15.326Z,20.77
2023-04-29T14:20:41.551Z,23.93
2023-04-29T14:23:07.784Z,22.97
2023-04-29T14:25:34.564Z,19.50
2023-04-29T14:28:00.965Z,23.03
2023-04-29T14:30:27.117Z,20.07
2023-04-29T14:32:53.309Z,23.97
2023-04-29T14:35:19.991Z,23.00
2023-04-29T14:37:46.235Z,23.70
2023-04-29T14:40:12.774Z,22.43
2023-04-29T14:42:39.579Z,20.27
2023-04-29T14:45:07.243Z,26.80
2023-04-29T14:47:33.549Z,23.53
2023-04-29T14:49:59.822Z,22.93
2023-04-29T14:52:26.002Z,27.70
2023-04-29T14:54:52.511Z,25.83
2023-04-29T14:57:18.890Z,24.07
2023-04-29T14:59:45.750Z,27.87
2023-04-29T15:02:12.078Z,24.27
2023-04-29T15:04:42.329Z,24.53
2023-04-29T15:07:08.554Z,28.67
2023-04-29T15:09:34.807Z,20.73
2023-04-29T15:12:01.285Z,24.43
2023-04-29T15:14:27.438Z,21.37
2023-04-29T15:16:54.294Z,27.00
2023-04-29T15:19:20.928Z,22.33
2023-04-29T15:21:47.114Z,27.80
2023-04-29T15:24:13.286Z,25.27
2023-04-29T15:26:41.383Z,22.43
2023-04-29T15:29:07.559Z,26.00
2023-04-29T15:31:33.793Z,23.57
2023-04-29T15:34:00.927Z,21.77
2023-04-29T15:36:28.982Z,21.27
2023-04-29T15:38:55.180Z,17.23
2023-04-29T15:41:21.385Z,26.77
2023-04-29T15:43:47.677Z,16.70
2023-04-29T15:46:14.075Z,20.77
2023-04-29T15:48:40.236Z,18.57
2023-04-29T15:51:09.043Z,23.63
2023-04-29T15:53:35.229Z,14.13
2023-04-29T15:56:01.424Z,21.73
2023-04-29T15:58:27.799Z,18.23
2023-04-29T16:00:53.981Z,19.83
2023-04-29T16:03:20.483Z,17.20
2023-04-29T16:05:46.891Z,19.80
2023-04-29T16:08:13.759Z,14.27
2023-04-29T16:10:39.995Z,19.80
2023-04-29T16:13:06.199Z,15.93
2023-04-29T16:15:32.480Z,19.90
2023-04-29T16:17:59.677Z,18.73
2023-04-29T16:20:26.220Z,16.67
2023-04-29T16:22:52.791Z,15.10
2023-04-29T16:25:19.648Z,17.40
2023-04-29T16:27:46.471Z,16.97
2023-04-29T16:30:14.854Z,12.60
2023-04-29T16:32:42.193Z,13.57
2023-04-29T16:35:09.351Z,16.70
2023-04-29T16:37:35.600Z,15.20
2023-04-29T16:40:02.066Z,18.57
2023-04-29T16:42:28.912Z,14.20
2023-04-29T16:44:55.170Z,15.77
2023-04-29T16:47:22.756Z,14.33
2023-04-29T16:49:49.815Z,12.53
2023-04-29T16:52:16.958Z,15.60
2023-04-29T16:54:43.189Z,15.57
2023-04-29T16:57:09.370Z,17.40
2023-04-29T16:59:36.219Z,16.17
2023-04-29T17:02:02.545Z,18.40
2023-04-29T17:04:28.835Z,17.30
2023-04-29T17:06:55.193Z,16.90
2023-04-29T17:09:25.071Z,18.07
2023-04-29T17:11:51.443Z,15.30
2023-04-29T17:14:17.739Z,21.07
2023-04-29T17:16:44.590Z,16.80
2023-04-29T17:19:10.835Z,15.83
2023-04-29T17:21:37.074Z,18.00
2023-04-29T17:24:03.774Z,17.47
2023-04-29T17:26:30.747Z,21.23
2023-04-29T17:28:58.050Z,17.10
2023-04-29T17:31:30.036Z,18.17
2023-04-29T17:34:04.607Z,17.13
2023-04-29T17:36:32.062Z,14.87
2023-04-29T17:38:58.531Z,16.90
2023-04-29T17:41:24.739Z,15.97
2023-04-29T17:43:51.334Z,16.73
2023-04-29T17:46:20.403Z,16.83
2023-04-29T17:48:46.789Z,16.23
2023-04-29T17:51:15.001Z,15.43
2023-04-29T17:53:41.760Z,16.63
2023-04-29T17:56:10.846Z,14.83
2023-04-29T17:58:37.350Z,14.10
2023-04-29T18:01:04.278Z,13.13
2023-04-29T18:03:30.764Z,15.03
2023-04-29T18:05:57.021Z,16.70
2023-04-29T18:08:23.966Z,16.77
2023-04-29T18:10:50.174Z,14.00
2023-04-29T18:13:16.405Z,12.40
2023-04-29T18:15:43.253Z,13.83
2023-04-29T18:18:10.858Z,19.27
2023-04-29T18:20:38.873Z,12.57
2023-04-29T18:23:05.120Z,18.27
2023-04-29T18:25:35.601Z,13.67
2023-04-29T18:28:13.596Z,15.67
2023-04-29T18:30:49.379Z,14.90
2023-04-29T18:33:15.717Z,13.60
2023-04-29T18:35:42.014Z,16.47
2023-04-29T18:38:09.924Z,15.33
2023-04-29T18:40:36.738Z,10.47
2023-04-29T18:43:02.956Z,16.67
2023-04-29T18:45:29.209Z,9.93
2023-04-29T18:47:55.370Z,13.27
2023-04-29T18:50:24.813Z,15.07
2023-04-29T18:52:51.273Z,11.50
2023-04-29T18:55:17.504Z,13.77
2023-04-29T18:57:44.426Z,16.73
2023-04-29T19:00:13.664Z,12.47
2023-04-29T19:02:39.821Z,10.47
2023-04-29T19:05:10.370Z,14.20
2023-04-29T19:07:36.578Z,13.97
2023-04-29T19:10:03.810Z,12.13
2023-04-29T19:12:30.768Z,13.27
2023-04-29T19:14:58.338Z,14.70
2023-04-29T19:17:24.585Z,13.00
2023-04-29T19:19:50.959Z,17.43
2023-04-29T19:22:17.388Z,14.93
2023-04-29T19:24:43.636Z,14.17
2023-04-29T19:27:09.950Z,16.87
2023-04-29T19:29:36.485Z,15.30
2023-04-29T19:32:03.419Z,14.90
2023-04-29T19:34:30.133Z,16.23
2023-04-29T19:36:56.449Z,14.57
2023-04-29T19:39:22.712Z,14.27
2023-04-29T19:41:49.995Z,14.90
2023-04-29T19:44:16.425Z,14.07
2023-04-29T19:46:42.668Z,12.10
2023-04-29T19:49:09.726Z,13.33
2023-04-29T19:51:36.249Z,15.00
2023-04-29T19:54:02.709Z,14.97
2023-04-29T19:56:29.318Z,13.23
2023-04-29T19:58:58.206Z,14.93
2023-04-29T20:01:26.696Z,17.47
2023-04-29T20:03:53.146Z,18.07
2023-04-29T20:06:20.388Z,15.70
2023-04-29T20:08:46.771Z,18.70
2023-04-29T20:11:13.609Z,14.67
2023-04-29T20:13:39.874Z,14.47
2023-04-29T20:16:06.251Z,15.00
2023-04-29T20:18:35.087Z,15.80
2023-04-29T20:21:01.608Z,16.90
2023-04-29T20:23:28.812Z,14.03
2023-04-29T20:25:56.141Z,14.73
2023-04-29T20:28:22.369Z,21.00
2023-04-29T20:30:48.594Z,12.23
2023-04-29T20:33:15.277Z,15.77
2023-04-29T20:35:41.612Z,15.73
2023-04-29T20:38:07.790Z,11.20
2023-04-29T20:40:35.338Z,11.33
2023-04-29T20:43:01.664Z,14.97
2023-04-29T20:45:28.251Z,17.17
2023-04-29T20:47:54.714Z,17.60
2023-04-29T20:50:21.947Z,16.97
2023-04-29T20:52:49.413Z,19.70
2023-04-29T20:55:15.885Z,16.00
2023-04-29T20:57:42.722Z,16.87
2023-04-29T21:00:09.989Z,19.40
2023-04-29T21:02:36.686Z,22.57
2023-04-29T21:05:03.185Z,20.60
2023-04-29T21:07:29.400Z,19.23
2023-04-29T21:09:56.129Z,18.03
2023-04-29T21:12:23.960Z,18.60
2023-04-29T21:14:51.169Z,15.87
2023-04-29T21:17:17.477Z,13.20
2023-04-29T21:19:44.359Z,15.70
2023-04-29T21:22:10.743Z,16.47
2023-04-29T21:24:36.974Z,21.70
2023-04-29T21:27:03.299Z,17.47
2023-04-29T21:29:29.654Z,21.30
2023-04-29T21:31:56.600Z,22.47
2023-04-29T21:34:22.977Z,19.77
2023-04-29T21:36:49.154Z,19.57
2023-04-29T21:39:15.443Z,16.70
2023-04-29T21:41:42.747Z,21.17
2023-04-29T21:44:09.075Z,16.53
2023-04-29T21:46:35.408Z,22.57
2023-04-29T21:49:03.099Z,17.53
2023-04-29T21:51:30.950Z,18.13
2023-04-29T21:53:57.327Z,18.20
2023-04-29T21:56:23.810Z,15.00
2023-04-29T21:58:52.136Z,21.17
2023-04-29T22:01:39.566Z,17.43
2023-04-29T22:04:06.690Z,24.37
2023-04-29T22:06:33.640Z,19.60
2023-04-29T22:08:59.917Z,18.67
2023-04-29T22:11:26.163Z,18.83
2023-04-29T22:13:52.482Z,16.07
2023-04-29T22:16:18.873Z,16.27
2023-04-29T22:18:45.495Z,20.53
2023-04-29T22:21:12.604Z,17.03
2023-04-29T22:23:39.013Z,18.33
2023-04-29T22:26:05.532Z,12.67
2023-04-29T22:28:31.693Z,14.83
2023-04-29T22:30:58.809Z,16.23
2023-04-29T22:33:25.060Z,18.57
2023-04-29T22:35:51.243Z,15.97
2023-04-29T22:38:18.091Z,14.20
2023-04-29T22:40:49.088Z,13.60
2023-04-29T22:43:15.621Z,15.90
2023-04-29T22:45:41.912Z,13.47
2023-04-29T22:48:08.204Z,15.63
2023-04-29T22:50:34.573Z,17.40
2023-04-29T22:53:00.774Z,15.73
2023-04-29T22:55:27.581Z,18.90
2023-04-29T22:57:53.843Z,20.50
2023-04-29T23:00:22.868Z,12.97
2023-04-29T23:02:49.100Z,11.53
2023-04-29T23:05:15.890Z,12.97
2023-04-29T23:07:42.020Z,9.47
2023-04-29T23:10:09.091Z,15.30
2023-04-29T23:12:36.095Z,12.83
2023-04-29T23:15:02.885Z,11.90
2023-04-29T23:17:29.036Z,12.73
2023-04-29T23:19:55.518Z,10.17
2023-04-29T23:22:21.988Z,12.27
2023-04-29T23:24:48.551Z,14.70
2023-04-29T23:27:14.769Z,11.63
2023-04-29T23:29:41.738Z,16.03
2023-04-29T23:32:07.991Z,13.53
2023-04-29T23:34:36.277Z,12.07
2023-04-29T23:37:02.548Z,12.90
2023-04-29T23:39:28.775Z,12.47
2023-04-29T23:41:55.506Z,13.90
2023-04-29T23:44:21.932Z,11.33
2023-04-29T23:46:49.079Z,9.47
2023-04-29T23:49:15.331Z,10.00
2023-04-29T23:51:41.555Z,17.60
2023-04-29T23:54:07.879Z,11.43
2023-04-29T23:56:34.187Z,12.80
2023-04-29T23:59:00.404Z,14.30
